createdAt,value
2018-05-31T00:02:16.124Z,4.73
2018-05-31T00:04:42.763Z,4.77
2018-05-31T00:07:09.409Z,4.67
2018-05-31T00:09:36.043Z,3.83
2018-05-31T00:12:02.688Z,3.90
2018-05-31T00:14:29.330Z,3.70
2018-05-31T00:16:55.962Z,3.97
2018-05-31T00:19:22.617Z,4.60
2018-05-31T00:21:49.277Z,4.00
2018-05-31T00:24:15.896Z,3.63
2018-05-31T00:26:42.547Z,3.90
2018-05-31T00:29:09.201Z,3.83
2018-05-31T00:31:35.829Z,4.20
2018-05-31T00:34:02.476Z,3.30
2018-05-31T00:36:29.189Z,3.73
2018-05-31T00:38:55.848Z,3.97
2018-05-31T00:41:22.474Z,4.00
2018-05-31T00:43:49.141Z,3.63
2018-05-31T00:46:15.764Z,4.13
2018-05-31T00:48:42.398Z,4.00
2018-05-31T00:51:09.059Z,4.30
2018-05-31T00:53:35.707Z,4.23
2018-05-31T00:56:17.258Z,4.00
2018-05-31T00:58:43.909Z,3.73
2018-05-31T01:01:10.541Z,4.30
2018-05-31T01:03:37.166Z,4.00
2018-05-31T01:06:03.832Z,4.63
2018-05-31T01:08:30.465Z,4.17
2018-05-31T01:10:57.109Z,4.53
2018-05-31T01:13:23.758Z,4.73
2018-05-31T01:15:50.386Z,4.83
2018-05-31T01:18:17.017Z,3.93
2018-05-31T01:20:43.640Z,5.07
2018-05-31T01:23:10.290Z,3.90
2018-05-31T01:25:37.969Z,4.40
2018-05-31T01:28:04.613Z,3.80
2018-05-31T01:30:31.295Z,3.43
2018-05-31T01:32:57.924Z,4.10
2018-05-31T01:35:24.582Z,3.80
2018-05-31T01:37:51.232Z,3.93
2018-05-31T01:40:17.910Z,3.70
2018-05-31T01:42:44.562Z,3.53
2018-05-31T01:45:11.217Z,3.43
2018-05-31T01:47:37.843Z,3.30
2018-05-31T01:50:04.527Z,2.90
2018-05-31T01:52:31.140Z,3.50
2018-05-31T01:54:57.801Z,3.50
2018-05-31T01:57:24.417Z,3.50
2018-05-31T01:59:51.108Z,3.53
2018-05-31T02:02:17.737Z,3.00
2018-05-31T02:04:44.378Z,3.10
2018-05-31T02:07:11.020Z,3.17
2018-05-31T02:09:37.636Z,3.17
2018-05-31T02:12:04.292Z,3.73
2018-05-31T02:14:31.547Z,3.50
2018-05-31T02:16:58.166Z,3.60
2018-05-31T02:19:24.843Z,3.33
2018-05-31T02:21:51.491Z,3.27
2018-05-31T02:24:18.139Z,3.10
2018-05-31T02:26:44.782Z,2.90
2018-05-31T02:29:11.438Z,3.10
2018-05-31T02:31:38.064Z,3.23
2018-05-31T02:34:04.742Z,3.43
2018-05-31T02:36:31.386Z,3.10
2018-05-31T02:38:58.046Z,3.37
2018-05-31T02:41:24.655Z,3.17
2018-05-31T02:43:51.335Z,3.10
2018-05-31T02:46:17.977Z,3.23
2018-05-31T02:48:44.621Z,3.13
2018-05-31T02:51:11.253Z,3.33
2018-05-31T02:53:37.886Z,3.53
2018-05-31T02:56:04.522Z,3.13
2018-05-31T02:58:31.165Z,3.30
2018-05-31T03:00:57.850Z,3.23
2018-05-31T03:03:24.463Z,3.33
2018-05-31T03:05:51.107Z,3.10
2018-05-31T03:08:17.735Z,3.30
2018-05-31T03:10:44.370Z,3.20
2018-05-31T03:13:11.014Z,3.73
2018-05-31T03:15:37.644Z,3.03
2018-05-31T03:18:04.302Z,3.07
2018-05-31T03:20:30.925Z,3.10
2018-05-31T03:22:57.571Z,3.20
2018-05-31T03:25:24.200Z,3.17
2018-05-31T03:27:50.857Z,3.20
2018-05-31T03:30:17.489Z,3.70
2018-05-31T03:32:44.924Z,3.40
2018-05-31T03:35:11.574Z,3.33
2018-05-31T03:37:38.251Z,3.67
2018-05-31T03:40:04.890Z,3.77
2018-05-31T03:42:31.555Z,3.23
2018-05-31T03:44:58.199Z,2.83
2018-05-31T03:47:24.911Z,3.13
2018-05-31T03:49:51.499Z,3.33
2018-05-31T03:52:18.131Z,3.60
2018-05-31T03:54:44.799Z,3.53
2018-05-31T03:57:11.435Z,3.17
2018-05-31T03:59:38.080Z,2.90
2018-05-31T04:02:04.698Z,3.60
2018-05-31T04:04:31.323Z,3.40
2018-05-31T04:06:57.966Z,2.73
2018-05-31T04:09:24.666Z,3.07
2018-05-31T04:11:51.259Z,3.50
2018-05-31T04:14:17.939Z,3.27
2018-05-31T04:16:44.569Z,3.40
2018-05-31T04:19:11.215Z,2.97
2018-05-31T04:21:37.850Z,3.20
2018-05-31T04:24:04.496Z,3.60
2018-05-31T04:26:31.190Z,3.00
2018-05-31T04:28:57.835Z,3.17
2018-05-31T04:31:24.725Z,3.00
2018-05-31T04:33:52.209Z,3.40
2018-05-31T04:36:18.848Z,3.43
2018-05-31T04:38:45.494Z,3.73
2018-05-31T04:41:12.119Z,3.40
2018-05-31T04:43:38.764Z,3.00
2018-05-31T04:46:05.383Z,2.90
2018-05-31T04:48:32.023Z,3.60
2018-05-31T04:50:58.686Z,3.40
2018-05-31T04:53:25.305Z,3.10
2018-05-31T04:55:51.986Z,2.70
2018-05-31T04:58:18.648Z,3.20
2018-05-31T05:00:45.318Z,3.00
2018-05-31T05:03:12.004Z,3.30
2018-05-31T05:05:38.638Z,3.97
2018-05-31T05:08:05.282Z,2.80
2018-05-31T05:10:31.901Z,3.53
2018-05-31T05:12:58.545Z,3.20
2018-05-31T05:15:25.196Z,2.80
2018-05-31T05:17:51.990Z,3.10
2018-05-31T05:20:18.679Z,2.50
2018-05-31T05:22:45.319Z,2.77
2018-05-31T05:25:11.981Z,2.70
2018-05-31T05:27:38.930Z,2.77
2018-05-31T05:30:05.640Z,2.27
2018-05-31T05:32:32.354Z,2.30
2018-05-31T05:34:58.991Z,2.30
2018-05-31T05:37:25.657Z,2.27
2018-05-31T05:39:52.327Z,2.70
2018-05-31T05:42:18.986Z,2.50
2018-05-31T05:44:45.639Z,2.60
2018-05-31T05:47:12.316Z,2.47
2018-05-31T05:49:39.015Z,2.20
2018-05-31T05:52:05.637Z,3.33
2018-05-31T05:54:32.323Z,3.00
2018-05-31T05:56:58.973Z,3.10
2018-05-31T05:59:25.638Z,3.27
2018-05-31T06:01:52.321Z,3.50
2018-05-31T06:04:18.961Z,3.43
2018-05-31T06:06:45.540Z,3.57
2018-05-31T06:09:12.188Z,2.90
2018-05-31T06:11:38.816Z,3.00
2018-05-31T06:14:05.490Z,3.27
2018-05-31T06:16:32.155Z,3.07
2018-05-31T06:18:58.825Z,2.90
2018-05-31T06:21:25.482Z,2.57
2018-05-31T06:23:52.100Z,3.23
2018-05-31T06:26:18.771Z,2.97
2018-05-31T06:28:45.396Z,3.33
2018-05-31T06:31:12.068Z,2.90
2018-05-31T06:33:38.721Z,2.87
2018-05-31T06:36:05.339Z,2.70
2018-05-31T06:38:32.016Z,3.10
2018-05-31T06:40:58.685Z,2.97
2018-05-31T06:43:25.313Z,2.77
2018-05-31T06:45:51.960Z,2.60
2018-05-31T06:48:18.626Z,2.87
2018-05-31T06:50:45.243Z,2.30
2018-05-31T06:53:11.852Z,2.37
2018-05-31T06:55:38.671Z,2.57
2018-05-31T06:58:05.287Z,2.63
2018-05-31T07:00:31.919Z,2.27
2018-05-31T07:02:58.584Z,2.40
2018-05-31T07:05:25.281Z,2.50
2018-05-31T07:07:51.916Z,2.67
2018-05-31T07:10:18.567Z,2.37
2018-05-31T07:12:45.224Z,2.70
2018-05-31T07:15:11.838Z,2.40
2018-05-31T07:17:38.447Z,2.73
2018-05-31T07:20:05.088Z,2.43
2018-05-31T07:22:31.727Z,2.90
2018-05-31T07:24:58.390Z,2.70
2018-05-31T07:27:25.033Z,2.57
2018-05-31T07:29:51.639Z,2.80
2018-05-31T07:32:18.305Z,2.70
2018-05-31T07:34:44.998Z,2.50
2018-05-31T07:37:12.076Z,2.70
2018-05-31T07:39:38.785Z,2.80
2018-05-31T07:42:05.410Z,2.70
2018-05-31T07:44:32.145Z,3.00
2018-05-31T07:46:58.746Z,2.80
2018-05-31T07:49:25.393Z,3.07
2018-05-31T07:51:52.052Z,2.67
2018-05-31T07:54:18.695Z,3.23
2018-05-31T07:56:45.307Z,2.20
2018-05-31T07:59:11.954Z,3.13
2018-05-31T08:01:38.601Z,2.70
2018-05-31T08:04:05.287Z,2.90
2018-05-31T08:06:31.920Z,2.77
2018-05-31T08:08:58.563Z,2.73
2018-05-31T08:11:25.223Z,2.40
2018-05-31T08:13:51.839Z,2.43
2018-05-31T08:16:18.617Z,2.63
2018-05-31T08:18:45.231Z,2.87
2018-05-31T08:21:11.882Z,2.30
2018-05-31T08:23:38.512Z,2.53
2018-05-31T08:26:05.210Z,2.60
2018-05-31T08:28:31.991Z,2.60
2018-05-31T08:30:58.645Z,2.73
2018-05-31T08:33:25.294Z,2.77
2018-05-31T08:35:52.523Z,2.90
2018-05-31T08:38:19.142Z,2.13
2018-05-31T08:40:45.795Z,2.90
2018-05-31T08:43:12.595Z,2.97
2018-05-31T08:45:39.229Z,2.20
2018-05-31T08:48:05.860Z,2.43
2018-05-31T08:50:32.529Z,2.83
2018-05-31T08:52:59.179Z,2.30
2018-05-31T08:55:25.802Z,2.53
2018-05-31T08:57:52.441Z,2.20
2018-05-31T09:00:19.096Z,2.07
2018-05-31T09:02:45.741Z,2.40
2018-05-31T09:05:12.411Z,2.80
2018-05-31T09:07:39.037Z,3.20
2018-05-31T09:10:05.690Z,2.40
2018-05-31T09:12:32.315Z,2.50
2018-05-31T09:14:58.961Z,2.13
2018-05-31T09:17:25.610Z,2.80
2018-05-31T09:19:52.250Z,3.00
2018-05-31T09:22:18.892Z,3.40
2018-05-31T09:24:45.535Z,3.00
2018-05-31T09:27:12.250Z,2.47
2018-05-31T09:29:38.921Z,2.50
2018-05-31T09:32:05.574Z,2.43
2018-05-31T09:34:32.227Z,2.80
2018-05-31T09:36:58.872Z,2.90
2018-05-31T09:39:25.524Z,2.80
2018-05-31T09:41:52.193Z,3.50
2018-05-31T09:44:18.837Z,3.00
2018-05-31T09:46:45.496Z,2.87
2018-05-31T09:49:13.079Z,3.23
2018-05-31T09:51:39.723Z,3.10
2018-05-31T09:54:06.353Z,2.73
2018-05-31T09:56:32.999Z,3.30
2018-05-31T09:58:59.663Z,2.70
2018-05-31T10:01:26.304Z,2.70
2018-05-31T10:03:52.942Z,3.80
2018-05-31T10:06:19.588Z,3.33
2018-05-31T10:08:46.217Z,3.33
2018-05-31T10:11:12.858Z,3.00
2018-05-31T10:13:39.498Z,3.07
2018-05-31T10:16:06.144Z,2.97
2018-05-31T10:18:32.820Z,3.27
2018-05-31T10:20:59.435Z,3.40
2018-05-31T10:23:26.094Z,2.70
2018-05-31T10:25:52.700Z,3.40
2018-05-31T10:28:19.351Z,3.37
2018-05-31T10:30:46.103Z,2.80
2018-05-31T10:33:12.711Z,2.63
2018-05-31T10:35:39.332Z,2.73
2018-05-31T10:38:05.981Z,3.00
2018-05-31T10:40:32.613Z,3.60
2018-05-31T10:42:59.253Z,2.70
2018-05-31T10:45:25.908Z,3.00
2018-05-31T10:47:52.614Z,2.67
2018-05-31T10:50:19.235Z,3.53
2018-05-31T10:52:45.879Z,2.70
2018-05-31T10:55:12.528Z,3.17
2018-05-31T10:57:39.163Z,2.30
2018-05-31T11:00:05.818Z,2.30
2018-05-31T11:02:32.445Z,3.00
2018-05-31T11:04:59.065Z,3.30
2018-05-31T11:07:25.713Z,3.03
2018-05-31T11:09:52.323Z,3.60
2018-05-31T11:12:18.989Z,3.00
2018-05-31T11:14:45.633Z,3.13
2018-05-31T11:17:12.269Z,3.37
2018-05-31T11:19:38.898Z,3.17
2018-05-31T11:22:05.544Z,3.27
2018-05-31T11:24:32.177Z,2.80
2018-05-31T11:26:58.828Z,2.80
2018-05-31T11:29:25.536Z,3.20
2018-05-31T11:31:52.168Z,3.40
2018-05-31T11:34:18.822Z,2.87
2018-05-31T11:36:45.450Z,3.23
2018-05-31T11:39:12.415Z,2.90
2018-05-31T11:41:39.107Z,3.03
2018-05-31T11:44:05.714Z,3.90
2018-05-31T11:46:32.349Z,2.90
2018-05-31T11:48:59.001Z,3.20
2018-05-31T11:51:25.635Z,3.10
2018-05-31T11:53:52.286Z,3.60
2018-05-31T11:56:18.924Z,3.20
2018-05-31T11:58:45.546Z,3.23
2018-05-31T12:01:12.201Z,3.33
2018-05-31T12:03:38.854Z,3.03
2018-05-31T12:06:05.542Z,3.80
2018-05-31T12:08:32.178Z,3.17
2018-05-31T12:10:59.067Z,2.80
2018-05-31T12:13:25.683Z,3.40
2018-05-31T12:15:52.643Z,3.67
2018-05-31T12:18:19.297Z,3.10
2018-05-31T12:20:45.928Z,3.23
2018-05-31T12:23:12.581Z,3.10
2018-05-31T12:25:39.199Z,2.70
2018-05-31T12:28:05.845Z,2.77
2018-05-31T12:30:32.490Z,2.87
2018-05-31T12:32:59.101Z,3.10
2018-05-31T12:35:25.756Z,2.90
2018-05-31T12:37:52.573Z,2.47
2018-05-31T12:40:19.203Z,3.10
2018-05-31T12:42:45.829Z,3.07
2018-05-31T12:45:13.147Z,2.67
2018-05-31T12:47:39.801Z,3.17
2018-05-31T12:50:06.438Z,2.80
2018-05-31T12:52:33.071Z,3.00
2018-05-31T12:54:59.717Z,3.23
2018-05-31T12:57:26.328Z,3.30
2018-05-31T12:59:52.990Z,2.93
2018-05-31T13:02:19.602Z,3.03
2018-05-31T13:04:46.243Z,3.30
2018-05-31T13:07:12.914Z,3.23
2018-05-31T13:09:39.551Z,3.80
2018-05-31T13:12:06.161Z,3.30
2018-05-31T13:14:32.802Z,3.50
2018-05-31T13:16:59.429Z,2.80
2018-05-31T13:19:26.096Z,3.03
2018-05-31T13:21:52.759Z,3.17
2018-05-31T13:24:19.368Z,3.20
2018-05-31T13:26:45.996Z,3.10
2018-05-31T13:29:12.624Z,3.30
2018-05-31T13:31:39.311Z,3.60
2018-05-31T13:34:05.939Z,3.13
2018-05-31T13:36:32.611Z,3.00
2018-05-31T13:38:59.234Z,3.30
2018-05-31T13:41:25.909Z,2.73
2018-05-31T13:43:52.531Z,3.37
2018-05-31T13:46:19.187Z,2.83
2018-05-31T13:48:45.822Z,3.00
2018-05-31T13:51:12.450Z,3.07
2018-05-31T13:53:39.090Z,2.90
2018-05-31T13:56:05.739Z,2.70
2018-05-31T13:58:32.384Z,2.77
2018-05-31T14:00:58.992Z,3.30
2018-05-31T14:03:25.727Z,3.07
2018-05-31T14:05:52.369Z,3.37
2018-05-31T14:08:19.024Z,3.60
2018-05-31T14:10:45.662Z,3.40
2018-05-31T14:13:12.290Z,2.60
2018-05-31T14:15:38.952Z,2.90
2018-05-31T14:18:05.624Z,2.50
2018-05-31T14:20:32.296Z,3.03
2018-05-31T14:25:44.455Z,2.80
2018-05-31T14:28:11.122Z,3.50
2018-05-31T14:30:37.765Z,3.50
2018-05-31T14:33:04.394Z,2.97
2018-05-31T14:35:31.073Z,3.90
2018-05-31T14:37:57.710Z,3.90
2018-05-31T14:40:24.345Z,3.03
2018-05-31T14:42:51.006Z,3.27
2018-05-31T14:45:17.644Z,2.50
2018-05-31T14:47:44.309Z,3.10
2018-05-31T14:50:10.947Z,2.80
2018-05-31T14:52:37.577Z,3.03
2018-05-31T14:55:04.229Z,3.40
2018-05-31T14:57:30.868Z,4.23
2018-05-31T14:59:57.538Z,3.00
2018-05-31T15:02:24.184Z,4.00
2018-05-31T15:04:50.838Z,3.10
2018-05-31T15:07:17.477Z,3.10
2018-05-31T15:09:44.143Z,3.03
2018-05-31T15:12:10.797Z,3.77
2018-05-31T15:14:38.197Z,3.30
2018-05-31T15:17:04.818Z,3.40
2018-05-31T15:19:31.465Z,3.80
2018-05-31T15:21:58.103Z,3.77
2018-05-31T15:24:24.765Z,3.63
2018-05-31T15:26:51.391Z,3.43
2018-05-31T15:29:18.019Z,4.10
2018-05-31T15:31:44.676Z,3.90
2018-05-31T15:34:11.338Z,4.50
2018-05-31T15:36:37.960Z,3.93
2018-05-31T15:39:05.357Z,3.97
2018-05-31T15:41:31.988Z,3.50
2018-05-31T15:43:58.630Z,3.70
2018-05-31T15:46:25.268Z,3.83
2018-05-31T15:48:51.898Z,4.30
2018-05-31T15:51:18.572Z,4.67
2018-05-31T15:53:45.190Z,3.83
2018-05-31T15:56:11.819Z,3.97
2018-05-31T15:58:38.469Z,4.13
2018-05-31T16:01:05.118Z,4.30
2018-05-31T16:03:31.766Z,4.30
2018-05-31T16:05:58.429Z,3.97
2018-05-31T16:08:25.094Z,3.67
2018-05-31T16:10:51.741Z,4.33
2018-05-31T16:13:18.397Z,3.53
2018-05-31T16:15:45.073Z,3.93
2018-05-31T16:18:11.752Z,3.83
2018-05-31T16:20:38.418Z,4.60
2018-05-31T16:23:05.050Z,3.80
2018-05-31T16:25:31.718Z,3.57
2018-05-31T16:27:58.361Z,3.43
2018-05-31T16:30:25.017Z,3.33
2018-05-31T16:32:51.675Z,3.60
2018-05-31T16:35:18.328Z,3.87
2018-05-31T16:37:44.957Z,3.60
2018-05-31T16:40:11.589Z,3.73
2018-05-31T16:42:38.280Z,3.10
2018-05-31T16:45:04.925Z,3.67
2018-05-31T16:47:31.569Z,3.63
2018-05-31T16:49:58.239Z,3.63
2018-05-31T16:52:24.877Z,3.50
2018-05-31T16:54:51.560Z,3.90
2018-05-31T16:57:18.232Z,3.60
2018-05-31T16:59:44.874Z,3.63
2018-05-31T17:02:11.554Z,3.40
2018-05-31T17:04:38.272Z,3.60
2018-05-31T17:07:05.021Z,3.73
2018-05-31T17:09:31.641Z,3.60
2018-05-31T17:11:58.268Z,2.70
2018-05-31T17:14:24.957Z,3.47
2018-05-31T17:16:51.604Z,3.00
2018-05-31T17:19:18.274Z,3.23
2018-05-31T17:21:45.452Z,2.80
2018-05-31T17:24:12.073Z,3.40
2018-05-31T17:26:38.746Z,2.80
2018-05-31T17:29:05.366Z,3.97
2018-05-31T17:31:32.017Z,4.23
2018-05-31T17:33:58.646Z,3.33
2018-05-31T17:36:25.272Z,3.67
2018-05-31T17:38:51.924Z,3.93
2018-05-31T17:41:18.550Z,3.77
2018-05-31T17:43:46.943Z,3.70
2018-05-31T17:46:13.653Z,3.73
2018-05-31T17:48:40.332Z,3.77
2018-05-31T17:51:06.968Z,3.70
2018-05-31T17:53:33.629Z,3.77
2018-05-31T17:56:00.298Z,3.80
2018-05-31T17:58:26.976Z,3.50
2018-05-31T18:00:53.601Z,3.40
2018-05-31T18:03:20.317Z,3.60
2018-05-31T18:05:46.990Z,4.13
2018-05-31T18:08:13.611Z,3.83
2018-05-31T18:10:40.274Z,4.53
2018-05-31T18:13:06.908Z,3.60
2018-05-31T18:15:33.558Z,4.10
2018-05-31T18:18:00.177Z,4.10
2018-05-31T18:20:26.832Z,4.33
2018-05-31T18:22:53.478Z,4.03
2018-05-31T18:25:20.128Z,4.40
2018-05-31T18:27:46.767Z,4.03
2018-05-31T18:30:13.410Z,4.00
2018-05-31T18:32:40.155Z,4.23
2018-05-31T18:35:06.780Z,3.70
2018-05-31T18:37:33.429Z,4.20
2018-05-31T18:40:00.143Z,3.80
2018-05-31T18:42:26.776Z,4.03
2018-05-31T18:44:53.450Z,4.43
2018-05-31T18:47:20.092Z,4.30
2018-05-31T18:49:46.741Z,4.70
2018-05-31T18:52:13.417Z,4.43
2018-05-31T18:54:40.064Z,4.57
2018-05-31T18:57:06.692Z,4.80
2018-05-31T18:59:33.328Z,4.77
2018-05-31T19:01:59.987Z,4.50
2018-05-31T19:04:26.658Z,4.00
2018-05-31T19:06:53.381Z,4.43
2018-05-31T19:09:34.870Z,4.13
2018-05-31T19:12:01.509Z,4.57
2018-05-31T19:14:28.158Z,4.50
2018-05-31T19:16:54.793Z,4.73
2018-05-31T19:19:27.252Z,4.63
2018-05-31T19:21:54.004Z,4.23
2018-05-31T19:24:26.380Z,4.40
2018-05-31T19:26:53.047Z,4.47
2018-05-31T19:29:19.730Z,4.47
2018-05-31T19:31:46.351Z,5.03
2018-05-31T19:34:13.003Z,4.77
2018-05-31T19:36:45.173Z,5.40
2018-05-31T19:39:11.843Z,5.07
2018-05-31T19:41:38.502Z,4.60
2018-05-31T19:44:10.733Z,4.17
2018-05-31T19:46:37.385Z,4.87
2018-05-31T19:49:04.061Z,4.90
2018-05-31T19:51:36.456Z,4.90
2018-05-31T19:54:03.141Z,4.90
2018-05-31T19:56:29.793Z,4.70
2018-05-31T19:59:02.036Z,4.50
2018-05-31T20:01:34.405Z,5.10
2018-05-31T20:04:01.054Z,4.63
2018-05-31T20:06:27.725Z,4.20
2018-05-31T20:08:54.384Z,4.73
2018-05-31T20:11:21.106Z,4.50
2018-05-31T20:13:47.777Z,4.20
2018-05-31T20:16:14.430Z,4.60
2018-05-31T20:18:41.748Z,4.50
2018-05-31T20:21:08.403Z,4.40
2018-05-31T20:23:35.036Z,4.53
2018-05-31T20:26:01.692Z,5.03
2018-05-31T20:28:29.154Z,4.70
2018-05-31T20:30:55.875Z,4.33
2018-05-31T20:33:22.514Z,6.00
2018-05-31T20:35:49.200Z,5.10
2018-05-31T20:38:15.878Z,5.33
2018-05-31T20:40:42.543Z,4.93
2018-05-31T20:43:09.181Z,5.30
2018-05-31T20:45:35.844Z,4.93
2018-05-31T20:48:02.487Z,5.00
2018-05-31T20:50:29.115Z,5.27
2018-05-31T20:52:55.757Z,4.70
2018-05-31T20:55:22.412Z,4.40
2018-05-31T20:57:49.041Z,4.23
2018-05-31T21:00:15.712Z,4.53
2018-05-31T21:02:42.348Z,4.17
2018-05-31T21:05:08.988Z,4.40
2018-05-31T21:07:35.945Z,4.40
2018-05-31T21:10:02.582Z,3.50
2018-05-31T21:12:29.206Z,3.73
2018-05-31T21:14:55.857Z,3.83
2018-05-31T21:17:22.520Z,4.23
2018-05-31T21:19:49.165Z,3.70
2018-05-31T21:22:15.814Z,4.70
2018-05-31T21:24:42.477Z,4.17
2018-05-31T21:27:09.097Z,4.33
2018-05-31T21:29:36.622Z,3.63
2018-05-31T21:32:03.254Z,3.60
2018-05-31T21:34:29.929Z,2.73
2018-05-31T21:36:56.560Z,2.47
2018-05-31T21:39:23.456Z,2.23
2018-05-31T21:41:50.084Z,1.83
2018-05-31T21:44:16.730Z,1.53
2018-05-31T21:46:43.372Z,1.30
2018-05-31T21:49:09.996Z,1.10
2018-05-31T21:51:36.637Z,1.43
2018-05-31T21:54:03.279Z,1.20
2018-05-31T21:56:29.920Z,1.33
2018-05-31T21:58:56.585Z,1.57
2018-05-31T22:01:23.222Z,1.50
2018-05-31T22:03:49.942Z,1.60
2018-05-31T22:06:16.589Z,1.67
2018-05-31T22:08:43.210Z,1.80
2018-05-31T22:11:09.857Z,2.20
2018-05-31T22:13:36.511Z,2.03
2018-05-31T22:16:03.154Z,2.23
2018-05-31T22:18:29.793Z,2.80
2018-05-31T22:20:56.442Z,2.63
2018-05-31T22:23:23.069Z,3.30
2018-05-31T22:25:49.689Z,2.60
2018-05-31T22:28:16.336Z,2.83
2018-05-31T22:30:43.012Z,4.10
2018-05-31T22:33:10.476Z,2.87
2018-05-31T22:35:37.111Z,3.07
2018-05-31T22:38:03.738Z,3.73
2018-05-31T22:40:30.399Z,3.30
2018-05-31T22:42:57.026Z,2.83
2018-05-31T22:45:23.665Z,3.07
2018-05-31T22:47:50.279Z,3.70
2018-05-31T22:50:16.988Z,3.30
2018-05-31T22:52:43.635Z,3.77
2018-05-31T22:55:10.248Z,4.00
2018-05-31T22:57:36.889Z,4.00
2018-05-31T23:00:03.521Z,3.73
2018-05-31T23:02:30.172Z,3.70
2018-05-31T23:04:56.794Z,3.60
2018-05-31T23:07:23.439Z,4.30
2018-05-31T23:09:50.094Z,3.70
2018-05-31T23:12:16.714Z,3.37
2018-05-31T23:14:43.340Z,3.23
2018-05-31T23:17:09.989Z,3.10
2018-05-31T23:19:36.641Z,3.10
2018-05-31T23:22:03.270Z,3.63
2018-05-31T23:24:29.951Z,4.00
2018-05-31T23:26:56.573Z,3.50
2018-05-31T23:29:23.226Z,3.40
2018-05-31T23:31:49.833Z,3.53
2018-05-31T23:34:16.468Z,3.53
2018-05-31T23:36:43.073Z,3.90
2018-05-31T23:39:09.710Z,3.73
2018-05-31T23:41:36.358Z,3.43
2018-05-31T23:44:02.977Z,4.03
2018-05-31T23:46:29.593Z,3.60
2018-05-31T23:48:56.254Z,3.83
2018-05-31T23:51:22.903Z,4.10
2018-05-31T23:53:49.545Z,3.63
2018-05-31T23:56:16.191Z,4.00
2018-05-31T23:58:42.845Z,3.77
